sensor_id;sensor_type;location;lat;lon;timestamp;P1;durP1;ratioP1;P2;durP2;ratioP2
9884;SDS011;4981;50.966;4.842;2023-08-24T02:45:35;11.75;;;7.20;;
9884;SDS011;4981;50.966;4.842;2023-08-24T02:48:02;10.18;;;7.22;;
9884;SDS011;4981;50.966;4.842;2023-08-24T02:50:30;12.93;;;7.72;;
9884;SDS011;4981;50.966;4.842;2023-08-24T02:52:57;12.35;;;7.28;;
9884;SDS011;4981;50.966;4.842;2023-08-24T02:55:26;9.32;;;7.32;;
9884;SDS011;4981;50.966;4.842;2023-08-24T02:57:53;13.23;;;7.07;;
9884;SDS011;4981;50.966;4.842;2023-08-24T03:00:20;8.40;;;7.10;;
9884;SDS011;4981;50.966;4.842;2023-08-24T03:02:48;10.98;;;6.97;;
9884;SDS011;4981;50.966;4.842;2023-08-24T03:05:15;9.30;;;7.05;;
9884;SDS011;4981;50.966;4.842;2023-08-24T03:07:42;10.60;;;7.30;;
9884;SDS011;4981;50.966;4.842;2023-08-24T03:10:10;11.25;;;6.85;;
9884;SDS011;4981;50.966;4.842;2023-08-24T03:12:37;9.07;;;6.97;;
9884;SDS011;4981;50.966;4.842;2023-08-24T03:15:04;9.85;;;7.55;;
9884;SDS011;4981;50.966;4.842;2023-08-24T03:17:32;12.23;;;7.32;;
9884;SDS011;4981;50.966;4.842;2023-08-24T03:20:00;10.63;;;6.25;;
9884;SDS011;4981;50.966;4.842;2023-08-24T03:22:27;14.88;;;7.70;;
9884;SDS011;4981;50.966;4.842;2023-08-24T03:24:54;20.23;;;7.57;;
9884;SDS011;4981;50.966;4.842;2023-08-24T03:27:21;15.20;;;7.90;;
9884;SDS011;4981;50.966;4.842;2023-08-24T03:29:48;13.30;;;7.97;;
9884;SDS011;4981;50.966;4.842;2023-08-24T03:32:15;14.50;;;8.13;;
9884;SDS011;4981;50.966;4.842;2023-08-24T03:34:42;19.50;;;8.27;;
9884;SDS011;4981;50.966;4.842;2023-08-24T03:37:11;11.10;;;8.20;;
9884;SDS011;4981;50.966;4.842;2023-08-24T03:39:38;10.32;;;7.57;;
9884;SDS011;4981;50.966;4.842;2023-08-24T03:42:07;14.43;;;8.25;;
9884;SDS011;4981;50.966;4.842;2023-08-24T03:44:34;13.13;;;7.57;;
9884;SDS011;4981;50.966;4.842;2023-08-24T03:47:01;13.75;;;8.65;;
9884;SDS011;4981;50.966;4.842;2023-08-24T03:49:28;12.18;;;8.30;;
9884;SDS011;4981;50.966;4.842;2023-08-24T03:51:55;11.30;;;7.25;;
9884;SDS011;4981;50.966;4.842;2023-08-24T03:54:23;12.10;;;7.90;;
9884;SDS011;4981;50.966;4.842;2023-08-24T03:56:50;13.50;;;7.82;;
9884;SDS011;4981;50.966;4.842;2023-08-24T03:59:17;9.77;;;7.97;;
9884;SDS011;4981;50.966;4.842;2023-08-24T04:01:44;13.63;;;8.25;;
9884;SDS011;4981;50.966;4.842;2023-08-24T04:04:11;11.27;;;7.30;;
9884;SDS011;4981;50.966;4.842;2023-08-24T04:06:38;11.55;;;7.85;;
9884;SDS011;4981;50.966;4.842;2023-08-24T04:09:05;14.20;;;7.75;;
9884;SDS011;4981;50.966;4.842;2023-08-24T04:11:34;9.20;;;8.23;;
9884;SDS011;4981;50.966;4.842;2023-08-24T04:14:00;12.10;;;7.75;;
9884;SDS011;4981;50.966;4.842;2023-08-24T04:16:28;12.80;;;8.35;;
9884;SDS011;4981;50.966;4.842;2023-08-24T04:18:55;11.32;;;8.73;;
9884;SDS011;4981;50.966;4.842;2023-08-24T04:21:22;14.75;;;11.90;;
9884;SDS011;4981;50.966;4.842;2023-08-24T04:23:49;10.60;;;8.18;;
9884;SDS011;4981;50.966;4.842;2023-08-24T04:26:16;13.20;;;7.85;;
9884;SDS011;4981;50.966;4.842;2023-08-24T04:28:44;13.75;;;7.95;;
9884;SDS011;4981;50.966;4.842;2023-08-24T04:31:11;12.13;;;8.00;;
9884;SDS011;4981;50.966;4.842;2023-08-24T04:33:38;10.02;;;8.02;;
9884;SDS011;4981;50.966;4.842;2023-08-24T04:36:05;13.27;;;8.25;;
9884;SDS011;4981;50.966;4.842;2023-08-24T04:38:33;8.43;;;7.50;;
9884;SDS011;4981;50.966;4.842;2023-08-24T04:41:00;10.98;;;7.60;;
9884;SDS011;4981;50.966;4.842;2023-08-24T04:43:28;9.07;;;7.65;;
9884;SDS011;4981;50.966;4.842;2023-08-24T04:45:56;10.63;;;8.23;;
9884;SDS011;4981;50.966;4.842;2023-08-24T04:48:24;10.05;;;7.55;;
9884;SDS011;4981;50.966;4.842;2023-08-24T04:50:52;9.13;;;7.45;;
9884;SDS011;4981;50.966;4.842;2023-08-24T04:53:21;9.60;;;7.47;;
9884;SDS011;4981;50.966;4.842;2023-08-24T04:55:48;12.80;;;8.30;;
9884;SDS011;4981;50.966;4.842;2023-08-24T04:58:15;8.63;;;7.60;;
9884;SDS011;4981;50.966;4.842;2023-08-24T05:00:42;8.88;;;7.97;;
9884;SDS011;4981;50.966;4.842;2023-08-24T05:03:10;10.68;;;7.60;;
9884;SDS011;4981;50.966;4.842;2023-08-24T05:05:38;11.40;;;7.50;;
9884;SDS011;4981;50.966;4.842;2023-08-24T05:08:05;14.88;;;7.68;;
9884;SDS011;4981;50.966;4.842;2023-08-24T05:10:35;11.90;;;7.60;;
9884;SDS011;4981;50.966;4.842;2023-08-24T05:13:02;13.25;;;7.18;;
9884;SDS011;4981;50.966;4.842;2023-08-24T05:15:29;11.20;;;7.00;;
9884;SDS011;4981;50.966;4.842;2023-08-24T05:17:56;9.43;;;6.78;;
9884;SDS011;4981;50.966;4.842;2023-08-24T05:20:26;11.32;;;7.47;;
9884;SDS011;4981;50.966;4.842;2023-08-24T05:22:53;13.25;;;7.90;;
9884;SDS011;4981;50.966;4.842;2023-08-24T05:25:21;13.07;;;6.95;;
9884;SDS011;4981;50.966;4.842;2023-08-24T05:27:48;11.88;;;7.30;;
9884;SDS011;4981;50.966;4.842;2023-08-24T05:30:15;11.70;;;6.80;;
9884;SDS011;4981;50.966;4.842;2023-08-24T05:32:42;11.18;;;6.60;;
9884;SDS011;4981;50.966;4.842;2023-08-24T05:35:09;11.88;;;7.55;;
9884;SDS011;4981;50.966;4.842;2023-08-24T05:37:40;14.38;;;7.32;;
9884;SDS011;4981;50.966;4.842;2023-08-24T05:40:07;11.57;;;7.13;;
9884;SDS011;4981;50.966;4.842;2023-08-24T05:42:34;8.38;;;6.00;;
9884;SDS011;4981;50.966;4.842;2023-08-24T05:45:02;9.90;;;6.18;;
9884;SDS011;4981;50.966;4.842;2023-08-24T05:47:29;9.65;;;5.63;;
9884;SDS011;4981;50.966;4.842;2023-08-24T05:49:56;7.85;;;5.57;;
9884;SDS011;4981;50.966;4.842;2023-08-24T05:52:23;9.55;;;5.80;;
9884;SDS011;4981;50.966;4.842;2023-08-24T05:54:51;10.57;;;6.43;;
9884;SDS011;4981;50.966;4.842;2023-08-24T05:57:18;8.15;;;5.80;;
9884;SDS011;4981;50.966;4.842;2023-08-24T05:59:45;8.93;;;5.72;;
9884;SDS011;4981;50.966;4.842;2023-08-24T06:02:12;7.40;;;5.65;;
9884;SDS011;4981;50.966;4.842;2023-08-24T06:04:39;9.38;;;5.15;;
9884;SDS011;4981;50.966;4.842;2023-08-24T06:07:06;8.50;;;5.15;;
9884;SDS011;4981;50.966;4.842;2023-08-24T06:09:33;11.00;;;5.45;;
9884;SDS011;4981;50.966;4.842;2023-08-24T06:12:01;9.55;;;5.55;;
9884;SDS011;4981;50.966;4.842;2023-08-24T06:14:28;8.82;;;5.43;;
9884;SDS011;4981;50.966;4.842;2023-08-24T06:16:55;11.60;;;6.38;;
9884;SDS011;4981;50.966;4.842;2023-08-24T06:19:22;12.52;;;5.78;;
9884;SDS011;4981;50.966;4.842;2023-08-24T06:21:49;12.38;;;6.88;;
9884;SDS011;4981;50.966;4.842;2023-08-24T06:24:16;9.82;;;6.47;;
9884;SDS011;4981;50.966;4.842;2023-08-24T06:26:43;8.38;;;6.22;;
9884;SDS011;4981;50.966;4.842;2023-08-24T06:29:11;3.75;;;2.75;;
9884;SDS011;4981;50.966;4.842;2023-08-24T06:31:38;3.60;;;3.10;;
9884;SDS011;4981;50.966;4.842;2023-08-24T06:34:05;5.32;;;2.90;;
9884;SDS011;4981;50.966;4.842;2023-08-24T06:36:32;7.50;;;4.35;;
9884;SDS011;4981;50.966;4.842;2023-08-24T06:38:59;9.70;;;5.95;;
9884;SDS011;4981;50.966;4.842;2023-08-24T06:41:32;11.15;;;6.05;;
9884;SDS011;4981;50.966;4.842;2023-08-24T06:43:59;8.90;;;6.70;;
9884;SDS011;4981;50.966;4.842;2023-08-24T06:46:28;9.00;;;6.00;;
9884;SDS011;4981;50.966;4.842;2023-08-24T06:48:56;13.38;;;6.20;;
9884;SDS011;4981;50.966;4.842;2023-08-24T06:51:22;10.13;;;6.35;;
9884;SDS011;4981;50.966;4.842;2023-08-24T06:53:50;8.77;;;6.75;;
9884;SDS011;4981;50.966;4.842;2023-08-24T06:56:17;9.13;;;6.50;;
9884;SDS011;4981;50.966;4.842;2023-08-24T12:52:17;7.68;;;4.65;;
9884;SDS011;4981;50.966;4.842;2023-08-24T12:54:44;5.25;;;4.28;;
9884;SDS011;4981;50.966;4.842;2023-08-24T12:57:11;6.43;;;3.60;;
9884;SDS011;4981;50.966;4.842;2023-08-24T12:59:38;8.88;;;3.70;;
9884;SDS011;4981;50.966;4.842;2023-08-24T13:02:05;6.82;;;4.07;;
9884;SDS011;4981;50.966;4.842;2023-08-24T13:04:32;7.32;;;4.10;;
9884;SDS011;4981;50.966;4.842;2023-08-24T13:07:00;6.57;;;3.63;;
9884;SDS011;4981;50.966;4.842;2023-08-24T13:09:27;5.45;;;2.60;;
9884;SDS011;4981;50.966;4.842;2023-08-24T13:11:54;5.63;;;3.10;;
9884;SDS011;4981;50.966;4.842;2023-08-24T13:14:21;3.83;;;2.53;;
9884;SDS011;4981;50.966;4.842;2023-08-24T13:16:48;9.23;;;3.13;;
9884;SDS011;4981;50.966;4.842;2023-08-24T13:19:15;5.70;;;2.60;;
9884;SDS011;4981;50.966;4.842;2023-08-24T13:21:42;4.03;;;2.75;;
9884;SDS011;4981;50.966;4.842;2023-08-24T13:24:10;4.03;;;2.58;;
9884;SDS011;4981;50.966;4.842;2023-08-24T13:26:37;4.78;;;2.60;;
9884;SDS011;4981;50.966;4.842;2023-08-24T13:29:04;7.30;;;3.53;;
9884;SDS011;4981;50.966;4.842;2023-08-24T13:31:31;5.07;;;2.67;;
9884;SDS011;4981;50.966;4.842;2023-08-24T13:33:58;3.88;;;2.63;;
9884;SDS011;4981;50.966;4.842;2023-08-24T13:36:25;5.40;;;2.70;;
9884;SDS011;4981;50.966;4.842;2023-08-24T13:38:52;3.95;;;2.10;;
9884;SDS011;4981;50.966;4.842;2023-08-24T13:41:20;4.20;;;2.00;;
9884;SDS011;4981;50.966;4.842;2023-08-24T13:43:47;3.47;;;2.10;;
9884;SDS011;4981;50.966;4.842;2023-08-24T13:46:14;4.97;;;1.90;;
9884;SDS011;4981;50.966;4.842;2023-08-24T13:48:41;4.50;;;2.33;;
9884;SDS011;4981;50.966;4.842;2023-08-24T13:51:08;3.92;;;2.13;;
9884;SDS011;4981;50.966;4.842;2023-08-24T13:53:37;4.07;;;1.80;;
9884;SDS011;4981;50.966;4.842;2023-08-24T13:56:04;2.33;;;1.88;;
9884;SDS011;4981;50.966;4.842;2023-08-24T13:58:33;3.00;;;1.73;;
9884;SDS011;4981;50.966;4.842;2023-08-24T14:01:00;3.92;;;1.58;;
9884;SDS011;4981;50.966;4.842;2023-08-24T14:03:29;4.10;;;2.08;;
9884;SDS011;4981;50.966;4.842;2023-08-24T14:05:56;3.25;;;1.52;;
9884;SDS011;4981;50.966;4.842;2023-08-24T14:08:23;2.60;;;1.60;;
9884;SDS011;4981;50.966;4.842;2023-08-24T14:10:51;5.07;;;1.70;;
9884;SDS011;4981;50.966;4.842;2023-08-24T14:13:18;6.32;;;2.00;;
9884;SDS011;4981;50.966;4.842;2023-08-24T14:15:47;2.70;;;1.50;;
9884;SDS011;4981;50.966;4.842;2023-08-24T14:18:14;4.32;;;1.40;;
9884;SDS011;4981;50.966;4.842;2023-08-24T14:20:42;4.72;;;1.35;;
9884;SDS011;4981;50.966;4.842;2023-08-24T14:23:09;3.65;;;1.50;;
9884;SDS011;4981;50.966;4.842;2023-08-24T14:25:36;4.68;;;1.70;;
9884;SDS011;4981;50.966;4.842;2023-08-24T14:28:03;3.30;;;1.88;;
9884;SDS011;4981;50.966;4.842;2023-08-24T14:30:30;2.15;;;1.38;;
9884;SDS011;4981;50.966;4.842;2023-08-24T14:32:58;3.63;;;1.30;;
9884;SDS011;4981;50.966;4.842;2023-08-24T14:35:25;2.15;;;1.30;;
9884;SDS011;4981;50.966;4.842;2023-08-24T14:37:52;5.00;;;1.63;;
